createdAt,value
2019-01-21T00:01:22.715Z,20.80
2019-01-21T00:03:49.927Z,24.30
2019-01-21T00:06:17.124Z,18.67
2019-01-21T00:08:44.323Z,22.90
2019-01-21T00:11:11.617Z,20.60
2019-01-21T00:13:38.850Z,23.43
2019-01-21T00:16:06.023Z,24.93
2019-01-21T00:18:33.243Z,22.20
2019-01-21T00:21:00.359Z,19.63
2019-01-21T00:23:27.795Z,21.13
2019-01-21T00:25:55.006Z,22.00
2019-01-21T00:28:22.441Z,20.07
2019-01-21T00:30:49.699Z,23.47
2019-01-21T00:33:16.793Z,22.43
2019-01-21T00:35:43.863Z,18.50
2019-01-21T00:38:10.941Z,22.73
2019-01-21T00:40:38.134Z,30.77
2019-01-21T00:43:05.590Z,25.00
2019-01-21T00:45:32.750Z,24.53
2019-01-21T00:47:59.846Z,17.57
2019-01-21T00:50:26.990Z,21.50
2019-01-21T00:52:54.140Z,20.30
2019-01-21T00:55:21.320Z,24.07
2019-01-21T00:57:48.781Z,21.73
2019-01-21T01:00:18.734Z,21.10
2019-01-21T01:02:45.972Z,23.97
2019-01-21T01:05:13.420Z,22.80
2019-01-21T01:07:41.137Z,17.57
2019-01-21T01:10:09.434Z,21.00
2019-01-21T01:12:36.634Z,20.53
2019-01-21T01:15:04.543Z,23.70
2019-01-21T01:17:37.118Z,22.80
2019-01-21T01:20:00.794Z,27.63
2019-01-21T01:22:27.972Z,22.73
2019-01-21T01:24:55.235Z,22.07
2019-01-21T01:27:22.418Z,24.53
2019-01-21T01:29:49.616Z,20.70
2019-01-21T01:32:16.828Z,25.80
2019-01-21T01:34:44.049Z,20.40
2019-01-21T01:37:11.414Z,19.10
2019-01-21T01:39:38.690Z,19.27
2019-01-21T01:42:05.941Z,26.57
2019-01-21T01:44:33.090Z,25.67
2019-01-21T01:47:00.540Z,25.23
2019-01-21T01:49:27.724Z,23.20
2019-01-21T01:51:55.082Z,22.87
2019-01-21T01:54:22.699Z,23.90
2019-01-21T01:56:49.741Z,24.90
2019-01-21T01:59:16.922Z,26.10
2019-01-21T02:01:44.092Z,22.57
2019-01-21T02:04:11.280Z,22.27
2019-01-21T02:06:38.437Z,22.20
2019-01-21T02:09:07.431Z,25.20
2019-01-21T02:11:34.956Z,29.63
2019-01-21T02:14:02.183Z,18.80
2019-01-21T02:16:29.370Z,20.87
2019-01-21T02:18:56.578Z,25.07
2019-01-21T02:21:26.680Z,20.57
2019-01-21T02:24:01.606Z,28.83
2019-01-21T02:26:32.165Z,17.90
2019-01-21T02:29:12.911Z,22.87
2019-01-21T02:32:17.228Z,20.87
2019-01-21T02:35:00.072Z,19.40
2019-01-21T02:38:01.620Z,22.23
2019-01-21T02:40:46.710Z,21.63
2019-01-21T02:43:45.552Z,23.10
2019-01-21T02:46:52.687Z,21.93
2019-01-21T02:50:07.428Z,23.43
2019-01-21T02:52:52.163Z,23.03
2019-01-21T02:55:40.840Z,30.17
2019-01-21T02:58:20.417Z,24.47
2019-01-21T03:01:11.393Z,23.07
2019-01-21T03:04:47.584Z,28.67
2019-01-21T03:07:24.782Z,26.00
2019-01-21T03:10:18.845Z,21.50
2019-01-21T03:13:07.455Z,21.97
2019-01-21T03:16:01.818Z,26.20
2019-01-21T03:18:55.927Z,24.40
2019-01-21T03:22:15.804Z,23.07
2019-01-21T03:25:33.927Z,28.13
2019-01-21T03:28:46.131Z,23.63
2019-01-21T03:31:49.192Z,23.20
2019-01-21T03:34:41.960Z,22.20
2019-01-21T03:38:02.834Z,24.17
2019-01-21T03:40:52.277Z,21.67
2019-01-21T03:44:04.360Z,29.20
2019-01-21T03:46:59.001Z,19.30
2019-01-21T03:49:38.224Z,24.93
2019-01-21T03:52:24.071Z,23.67
2019-01-21T03:55:01.944Z,28.10
2019-01-21T03:58:07.815Z,25.50
2019-01-21T04:01:05.604Z,25.87
2019-01-21T04:04:05.168Z,23.27
2019-01-21T04:06:47.832Z,25.97
2019-01-21T04:09:52.500Z,27.77
2019-01-21T04:12:47.136Z,23.77
2019-01-21T04:15:48.021Z,23.40
2019-01-21T04:19:01.969Z,24.90
2019-01-21T04:21:55.000Z,24.33
2019-01-21T04:24:47.922Z,29.13
2019-01-21T04:28:15.232Z,30.07
2019-01-21T04:31:08.641Z,24.30
2019-01-21T04:34:09.368Z,24.23
2019-01-21T04:37:09.271Z,25.53
2019-01-21T04:40:23.787Z,26.90
2019-01-21T04:43:27.271Z,29.37
2019-01-21T04:46:29.227Z,23.63
2019-01-21T04:49:36.297Z,25.23
2019-01-21T04:52:53.342Z,26.43
2019-01-21T04:55:56.645Z,26.90
2019-01-21T04:59:04.570Z,25.47
2019-01-21T05:02:18.772Z,30.13
2019-01-21T05:05:28.764Z,25.40
2019-01-21T05:08:30.885Z,27.77
2019-01-21T05:11:15.966Z,23.70
2019-01-21T05:14:16.095Z,23.37
2019-01-21T05:17:07.703Z,26.10
2019-01-21T05:20:12.760Z,31.60
2019-01-21T05:23:00.433Z,26.50
2019-01-21T05:26:08.755Z,32.03
2019-01-21T05:29:35.524Z,29.77
2019-01-21T05:32:58.024Z,28.57
2019-01-21T05:36:14.963Z,31.00
2019-01-21T05:38:56.528Z,28.50
2019-01-21T05:42:11.402Z,29.03
2019-01-21T05:44:50.713Z,25.73
2019-01-21T05:47:58.381Z,35.83
2019-01-21T05:51:10.586Z,32.53
2019-01-21T05:54:19.015Z,26.37
2019-01-21T05:57:24.882Z,33.30
2019-01-21T06:00:19.250Z,27.40
2019-01-21T06:03:26.380Z,24.57
2019-01-21T06:06:22.115Z,23.93
2019-01-21T06:09:27.282Z,30.17
2019-01-21T06:12:11.157Z,23.37
2019-01-21T06:15:12.131Z,25.13
2019-01-21T06:18:17.186Z,25.90
2019-01-21T06:21:34.857Z,26.27
2019-01-21T06:24:50.088Z,31.40
2019-01-21T06:28:02.137Z,33.40
2019-01-21T06:31:26.447Z,26.23
2019-01-21T06:34:34.433Z,26.93
2019-01-21T06:37:17.264Z,30.33
2019-01-21T06:40:09.610Z,26.93
2019-01-21T06:43:21.369Z,26.40
2019-01-21T06:46:42.237Z,26.23
2019-01-21T06:49:51.516Z,27.47
2019-01-21T06:52:59.104Z,26.50
2019-01-21T06:55:46.729Z,30.50
2019-01-21T06:58:53.430Z,32.03
2019-01-21T07:01:46.651Z,29.23
2019-01-21T07:04:41.887Z,28.30
2019-01-21T07:08:01.995Z,34.10
2019-01-21T07:11:09.585Z,26.10
2019-01-21T07:14:07.123Z,26.60
2019-01-21T07:17:02.467Z,26.63
2019-01-21T07:19:57.264Z,34.20
2019-01-21T07:23:00.551Z,33.30
2019-01-21T07:25:43.613Z,34.10
2019-01-21T07:28:42.149Z,32.83
2019-01-21T07:31:43.320Z,33.60
2019-01-21T07:34:39.000Z,25.63
2019-01-21T07:37:41.046Z,29.97
2019-01-21T07:40:53.491Z,28.13
2019-01-21T07:43:54.173Z,24.97
2019-01-21T07:47:06.160Z,26.80
2019-01-21T07:50:14.235Z,27.00
2019-01-21T07:53:15.350Z,29.03
2019-01-21T07:56:31.981Z,25.83
2019-01-21T07:59:38.585Z,34.03
2019-01-21T08:02:22.355Z,28.00
2019-01-21T08:05:28.433Z,28.40
2019-01-21T08:08:06.848Z,36.37
2019-01-21T08:11:16.987Z,27.63
2019-01-21T08:14:18.901Z,26.10
2019-01-21T08:17:23.569Z,33.93
2019-01-21T08:20:03.970Z,28.33
2019-01-21T08:23:17.518Z,26.27
2019-01-21T08:26:06.716Z,29.37
2019-01-21T08:29:17.172Z,30.43
2019-01-21T08:32:07.846Z,30.23
2019-01-21T08:35:18.852Z,26.33
2019-01-21T08:38:29.029Z,23.17
2019-01-21T08:41:40.767Z,26.50
2019-01-21T08:44:45.536Z,25.10
2019-01-21T08:47:47.214Z,32.07
2019-01-21T08:50:48.170Z,30.73
2019-01-21T08:53:55.755Z,30.73
2019-01-21T08:56:43.114Z,25.43
2019-01-21T08:59:37.935Z,27.17
2019-01-21T09:02:58.311Z,25.37
2019-01-21T09:06:04.844Z,26.10
2019-01-21T09:09:00.183Z,26.43
2019-01-21T09:12:09.379Z,26.50
2019-01-21T09:15:23.930Z,24.90
2019-01-21T09:18:37.793Z,25.20
2019-01-21T09:21:29.467Z,26.40
2019-01-21T09:24:28.547Z,26.93
2019-01-21T09:27:33.012Z,26.63
2019-01-21T09:30:40.615Z,27.10
2019-01-21T09:33:48.510Z,24.07
2019-01-21T09:36:43.196Z,24.90
2019-01-21T09:39:41.593Z,28.13
2019-01-21T09:42:32.726Z,26.90
2019-01-21T09:45:55.057Z,29.43
2019-01-21T09:48:21.509Z,26.50
2019-01-21T09:50:49.691Z,28.10
2019-01-21T09:53:16.915Z,26.37
2019-01-21T09:55:48.244Z,26.47
2019-01-21T09:58:15.682Z,24.37
2019-01-21T10:00:42.874Z,24.93
2019-01-21T10:03:11.265Z,25.20
2019-01-21T10:05:40.850Z,29.47
2019-01-21T10:08:56.419Z,26.60
2019-01-21T10:12:11.685Z,27.67
2019-01-21T10:15:19.394Z,25.03
2019-01-21T10:18:19.147Z,29.17
2019-01-21T10:21:38.262Z,25.63
2019-01-21T10:24:59.299Z,26.60
2019-01-21T10:28:05.424Z,23.53
2019-01-21T10:31:21.783Z,31.73
2019-01-21T10:34:29.788Z,25.10
2019-01-21T10:37:34.210Z,33.33
2019-01-21T10:40:08.139Z,24.37
2019-01-21T10:43:19.948Z,22.80
2019-01-21T10:46:09.786Z,36.80
2019-01-21T10:48:58.839Z,22.63
2019-01-21T10:52:10.149Z,33.10
2019-01-21T10:54:53.204Z,24.00
2019-01-21T10:57:34.625Z,26.53
2019-01-21T11:00:41.582Z,27.93
2019-01-21T11:03:29.657Z,27.10
2019-01-21T11:06:11.040Z,22.43
2019-01-21T11:09:12.859Z,26.67
2019-01-21T11:12:24.163Z,24.07
2019-01-21T11:15:31.048Z,23.37
2019-01-21T11:18:38.900Z,23.90
2019-01-21T11:21:26.971Z,21.80
2019-01-21T11:24:28.709Z,21.57
2019-01-21T11:27:28.550Z,23.03
2019-01-21T11:30:32.029Z,28.33
2019-01-21T11:33:39.575Z,28.90
2019-01-21T11:36:51.172Z,25.17
2019-01-21T11:40:11.095Z,27.43
2019-01-21T11:42:58.980Z,26.33
2019-01-21T11:45:45.461Z,22.67
2019-01-21T11:48:43.195Z,25.03
2019-01-21T11:51:42.624Z,24.90
2019-01-21T11:54:24.705Z,26.67
2019-01-21T11:57:14.721Z,23.17
2019-01-21T12:00:11.489Z,26.13
2019-01-21T12:03:10.151Z,27.13
2019-01-21T12:05:54.663Z,25.73
2019-01-21T12:09:09.350Z,26.80
2019-01-21T12:12:14.495Z,24.60
2019-01-21T12:15:37.986Z,23.03
2019-01-21T12:18:41.646Z,19.40
2019-01-21T12:21:53.860Z,24.73
2019-01-21T12:24:42.369Z,23.50
2019-01-21T12:27:43.446Z,22.50
2019-01-21T12:30:19.479Z,22.90
2019-01-21T12:33:46.668Z,24.07
2019-01-21T12:36:30.423Z,32.10
2019-01-21T12:39:28.400Z,28.37
2019-01-21T12:42:15.077Z,22.30
2019-01-21T12:45:11.538Z,27.27
2019-01-21T12:47:46.669Z,29.33
2019-01-21T12:50:51.411Z,23.90
2019-01-21T12:53:44.818Z,21.50
2019-01-21T12:56:38.868Z,24.50
2019-01-21T12:59:38.501Z,27.13
2019-01-21T13:02:21.850Z,21.83
2019-01-21T13:05:42.892Z,25.37
2019-01-21T13:08:42.954Z,24.83
2019-01-21T13:11:22.723Z,28.97
2019-01-21T13:14:15.421Z,23.83
2019-01-21T13:17:06.725Z,25.87
2019-01-21T13:20:03.021Z,31.30
2019-01-21T13:23:23.751Z,24.80
2019-01-21T13:26:39.164Z,24.73
2019-01-21T13:29:35.234Z,22.47
2019-01-21T13:32:47.042Z,30.70
2019-01-21T13:35:57.868Z,30.23
2019-01-21T13:39:24.938Z,27.57
2019-01-21T13:42:27.361Z,28.30
2019-01-21T13:45:32.180Z,34.87
2019-01-21T13:48:36.726Z,26.97
2019-01-21T13:51:53.215Z,24.77
2019-01-21T13:54:38.704Z,22.57
2019-01-21T13:57:59.774Z,28.00
2019-01-21T14:00:53.710Z,24.83
2019-01-21T14:04:13.935Z,23.70
2019-01-21T14:07:13.915Z,30.33
2019-01-21T14:10:17.286Z,32.47
2019-01-21T14:13:26.273Z,32.93
2019-01-21T14:16:14.450Z,42.47
2019-01-21T14:19:38.358Z,32.13
2019-01-21T14:22:54.859Z,24.70
2019-01-21T14:26:16.630Z,31.63
2019-01-21T14:29:40.934Z,24.50
2019-01-21T14:32:32.969Z,27.10
2019-01-21T14:35:18.046Z,34.80
2019-01-21T14:38:22.772Z,37.37
2019-01-21T14:41:29.944Z,27.30
2019-01-21T14:44:37.524Z,27.00
2019-01-21T14:47:42.045Z,28.20
2019-01-21T14:50:50.391Z,30.83
2019-01-21T14:53:26.021Z,27.20
2019-01-21T14:56:10.362Z,23.63
2019-01-21T14:58:59.224Z,26.43
2019-01-21T15:02:00.336Z,25.80
2019-01-21T15:05:04.718Z,26.80
2019-01-21T15:08:21.325Z,29.00
2019-01-21T15:11:20.922Z,27.03
2019-01-21T15:14:14.640Z,34.03
2019-01-21T15:17:38.650Z,28.57
2019-01-21T15:20:14.698Z,24.67
2019-01-21T15:23:44.704Z,30.93
2019-01-21T15:27:12.033Z,32.10
2019-01-21T15:30:21.232Z,29.63
2019-01-21T15:33:02.696Z,29.90
2019-01-21T15:36:05.170Z,30.63
2019-01-21T15:39:10.016Z,31.03
2019-01-21T15:42:21.605Z,27.77
2019-01-21T15:45:41.492Z,30.47
2019-01-21T15:48:29.318Z,30.27
2019-01-21T15:51:37.277Z,26.20
2019-01-21T15:54:49.551Z,33.27
2019-01-21T15:57:35.286Z,27.83
2019-01-21T16:00:43.324Z,29.90
2019-01-21T16:03:26.329Z,31.40
2019-01-21T16:06:28.889Z,28.83
2019-01-21T16:09:20.656Z,30.70
2019-01-21T16:11:56.026Z,31.50
2019-01-21T16:14:55.347Z,39.07
2019-01-21T16:17:55.564Z,44.70
2019-01-21T16:20:40.288Z,36.90
2019-01-21T16:23:51.655Z,34.10
2019-01-21T16:26:53.014Z,33.07
2019-01-21T16:29:47.425Z,27.30
2019-01-21T16:32:45.357Z,32.47
2019-01-21T16:36:05.466Z,31.43
2019-01-21T16:39:04.791Z,34.57
2019-01-21T16:41:56.567Z,34.90
2019-01-21T16:44:23.702Z,31.03
2019-01-21T16:46:50.901Z,29.27
2019-01-21T16:49:18.857Z,35.20
2019-01-21T16:51:46.233Z,34.53
2019-01-21T16:54:13.282Z,36.50
2019-01-21T16:56:40.528Z,36.70
2019-01-21T16:59:08.058Z,38.20
2019-01-21T17:01:35.315Z,37.10
2019-01-21T17:04:02.661Z,38.53
2019-01-21T17:06:29.841Z,38.50
2019-01-21T17:08:57.455Z,37.03
2019-01-21T17:11:24.999Z,32.17
2019-01-21T17:13:52.229Z,38.33
2019-01-21T17:16:19.405Z,41.17
2019-01-21T17:18:46.748Z,37.30
2019-01-21T17:21:13.997Z,34.80
2019-01-21T17:23:41.409Z,32.37
2019-01-21T17:26:08.697Z,33.90
2019-01-21T17:28:35.892Z,35.83
2019-01-21T17:31:03.132Z,28.60
2019-01-21T17:33:30.378Z,28.77
2019-01-21T17:35:57.501Z,35.43
2019-01-21T17:38:24.760Z,34.10
2019-01-21T17:40:52.156Z,36.43
2019-01-21T17:43:19.381Z,39.37
2019-01-21T17:46:09.846Z,35.50
2019-01-21T17:48:37.813Z,34.93
2019-01-21T17:51:05.056Z,38.80
2019-01-21T17:53:32.401Z,37.90
2019-01-21T17:55:59.567Z,35.33
2019-01-21T17:58:26.875Z,41.03
2019-01-21T18:00:54.110Z,39.90
2019-01-21T18:03:21.401Z,31.30
2019-01-21T18:05:48.668Z,35.30
2019-01-21T18:08:15.915Z,33.67
2019-01-21T18:10:43.093Z,37.33
2019-01-21T18:13:10.613Z,40.53
2019-01-21T18:15:37.856Z,37.67
2019-01-21T18:18:05.062Z,37.30
2019-01-21T18:20:32.362Z,40.77
2019-01-21T18:22:59.930Z,46.43
2019-01-21T18:25:27.471Z,37.70
2019-01-21T18:27:54.565Z,37.70
2019-01-21T18:30:24.988Z,46.40
2019-01-21T18:32:52.652Z,39.87
2019-01-21T18:35:19.884Z,35.17
2019-01-21T18:37:47.408Z,44.80
2019-01-21T18:40:16.284Z,39.70
2019-01-21T18:42:44.062Z,38.50
2019-01-21T18:45:12.777Z,40.70
2019-01-21T18:47:39.961Z,42.40
2019-01-21T18:50:08.226Z,39.70
2019-01-21T18:52:36.895Z,42.23
2019-01-21T18:55:04.432Z,47.03
2019-01-21T18:57:31.724Z,44.77
2019-01-21T18:59:58.945Z,39.60
2019-01-21T19:02:26.170Z,43.20
2019-01-21T19:04:53.495Z,37.67
2019-01-21T19:07:21.371Z,40.40
2019-01-21T19:09:48.639Z,42.90
2019-01-21T19:12:15.856Z,39.13
2019-01-21T19:14:42.994Z,44.40
2019-01-21T19:17:10.494Z,44.73
2019-01-21T19:19:37.826Z,38.90
2019-01-21T19:22:05.372Z,39.80
2019-01-21T19:24:32.664Z,35.80
2019-01-21T19:26:59.865Z,52.97
2019-01-21T19:29:27.086Z,39.87
2019-01-21T19:31:54.383Z,37.80
2019-01-21T19:34:21.855Z,42.20
2019-01-21T19:36:49.191Z,38.63
2019-01-21T19:39:16.391Z,40.83
2019-01-21T19:41:44.005Z,39.63
2019-01-21T19:44:11.886Z,37.77
2019-01-21T19:46:44.099Z,40.37
2019-01-21T19:49:08.558Z,35.57
2019-01-21T19:51:36.252Z,34.03
2019-01-21T19:54:03.832Z,40.63
2019-01-21T19:56:30.973Z,35.10
2019-01-21T19:58:58.218Z,48.00
2019-01-21T20:01:25.456Z,39.50
2019-01-21T20:03:52.758Z,43.50
2019-01-21T20:06:22.269Z,44.43
2019-01-21T20:08:49.476Z,39.33
2019-01-21T20:11:16.722Z,34.10
2019-01-21T20:13:44.057Z,35.43
2019-01-21T20:16:11.638Z,35.73
2019-01-21T20:18:38.864Z,44.57
2019-01-21T20:21:06.027Z,43.50
2019-01-21T20:23:33.244Z,38.80
2019-01-21T20:26:00.567Z,43.73
2019-01-21T20:28:28.129Z,39.03
2019-01-21T20:30:55.316Z,42.13
2019-01-21T20:33:22.713Z,40.10
2019-01-21T20:35:49.911Z,45.43
2019-01-21T20:38:17.155Z,43.93
2019-01-21T20:40:44.391Z,40.13
2019-01-21T20:43:11.572Z,38.17
2019-01-21T20:45:38.793Z,42.83
2019-01-21T20:48:06.168Z,46.10
2019-01-21T20:50:35.215Z,43.10
2019-01-21T20:53:03.067Z,44.53
2019-01-21T20:55:30.597Z,39.97
2019-01-21T20:57:58.105Z,47.03
2019-01-21T21:00:26.846Z,49.80
2019-01-21T21:02:54.883Z,40.73
2019-01-21T21:05:22.116Z,37.97
2019-01-21T21:07:49.383Z,46.83
2019-01-21T21:10:17.021Z,34.07
2019-01-21T21:12:44.271Z,43.30
2019-01-21T21:15:17.122Z,42.47
2019-01-21T21:17:44.218Z,37.33
2019-01-21T21:20:13.172Z,39.03
2019-01-21T21:22:42.460Z,40.93
2019-01-21T21:25:11.036Z,42.80
2019-01-21T21:27:38.355Z,41.73
2019-01-21T21:30:26.249Z,41.43
2019-01-21T21:32:56.938Z,39.47
2019-01-21T21:35:24.243Z,37.47
2019-01-21T21:37:51.491Z,47.53
2019-01-21T21:40:19.036Z,40.77
2019-01-21T21:42:46.257Z,38.90
2019-01-21T21:45:14.831Z,38.97
2019-01-21T21:47:41.924Z,45.03
2019-01-21T21:50:12.060Z,44.00
2019-01-21T21:52:39.293Z,42.73
2019-01-21T21:55:07.826Z,46.60
2019-01-21T21:57:35.408Z,47.87
2019-01-21T22:00:04.516Z,40.43
2019-01-21T22:02:31.745Z,41.00
2019-01-21T22:04:58.979Z,42.23
2019-01-21T22:07:26.406Z,40.23
2019-01-21T22:09:53.596Z,40.47
2019-01-21T22:12:20.702Z,41.43
2019-01-21T22:14:48.226Z,32.50
2019-01-21T22:17:15.340Z,38.50
2019-01-21T22:19:42.516Z,42.80
2019-01-21T22:22:09.765Z,42.30
2019-01-21T22:24:37.286Z,40.97
2019-01-21T22:27:04.494Z,37.03
2019-01-21T22:29:32.024Z,42.53
2019-01-21T22:31:59.240Z,39.27
2019-01-21T22:34:26.426Z,50.17
2019-01-21T22:36:53.982Z,50.90
2019-01-21T22:39:21.219Z,45.80
2019-01-21T22:41:48.409Z,50.77
2019-01-21T22:44:15.621Z,39.97
2019-01-21T22:46:42.837Z,44.63
2019-01-21T22:49:10.015Z,41.00
2019-01-21T22:51:37.261Z,47.53
2019-01-21T22:54:04.468Z,51.97
2019-01-21T22:56:32.220Z,46.23
2019-01-21T22:58:59.342Z,41.57
2019-01-21T23:01:29.546Z,45.03
2019-01-21T23:03:56.750Z,49.33
2019-01-21T23:06:23.949Z,51.10
2019-01-21T23:08:51.147Z,40.67
2019-01-21T23:11:18.325Z,49.10
2019-01-21T23:13:45.532Z,45.47
2019-01-21T23:16:13.076Z,39.90
2019-01-21T23:18:40.257Z,43.83
2019-01-21T23:21:07.549Z,41.60
2019-01-21T23:23:34.994Z,47.47
2019-01-21T23:26:02.245Z,39.30
2019-01-21T23:28:29.785Z,42.30
2019-01-21T23:30:56.991Z,42.10
2019-01-21T23:33:24.227Z,41.17
2019-01-21T23:35:51.370Z,48.60
2019-01-21T23:38:18.639Z,42.00
2019-01-21T23:40:45.972Z,47.70
2019-01-21T23:43:13.192Z,44.90
2019-01-21T23:45:40.731Z,39.27
2019-01-21T23:48:08.099Z,43.00
2019-01-21T23:50:35.819Z,46.07
2019-01-21T23:53:03.387Z,43.97
2019-01-21T23:55:30.553Z,48.77
2019-01-21T23:57:57.749Z,44.50
